createdAt,value
2017-07-20T00:00:52.421Z,22.60
2017-07-20T00:03:21.790Z,22.60
2017-07-20T00:05:51.902Z,22.40
2017-07-20T00:08:21.274Z,22.40
2017-07-20T00:10:50.624Z,22.40
2017-07-20T00:13:20.342Z,22.30
2017-07-20T00:15:49.683Z,22.30
2017-07-20T00:18:19.047Z,22.20
2017-07-20T00:20:48.388Z,22.20
2017-07-20T00:23:17.742Z,22.10
2017-07-20T00:25:47.101Z,22.10
2017-07-20T00:28:16.458Z,22.10
2017-07-20T00:30:45.854Z,22.10
2017-07-20T00:33:15.242Z,22.10
2017-07-20T00:35:44.594Z,22.10
2017-07-20T00:38:13.946Z,22.20
2017-07-20T00:40:44.075Z,22.20
2017-07-20T00:43:13.418Z,22.20
2017-07-20T00:45:42.785Z,22.20
2017-07-20T00:48:12.154Z,22.20
2017-07-20T00:50:41.507Z,22.20
2017-07-20T00:53:10.871Z,22.20
2017-07-20T00:55:40.997Z,22.20
2017-07-20T00:58:10.960Z,22.20
2017-07-20T01:03:47.581Z,22.20
2017-07-20T01:06:16.929Z,22.20
2017-07-20T01:08:46.265Z,22.10
2017-07-20T01:11:15.617Z,22.10
2017-07-20T01:13:45.722Z,22.00
2017-07-20T01:16:15.843Z,21.90
2017-07-20T01:18:45.948Z,21.70
2017-07-20T01:21:15.304Z,21.70
2017-07-20T01:23:44.639Z,21.70
2017-07-20T01:26:13.994Z,21.70
2017-07-20T01:28:43.361Z,21.60
2017-07-20T01:31:12.691Z,21.70
2017-07-20T01:33:42.806Z,21.70
2017-07-20T01:36:12.134Z,21.70
2017-07-20T01:38:41.496Z,21.70
2017-07-20T01:41:10.841Z,21.60
2017-07-20T01:43:40.186Z,21.60
2017-07-20T01:46:09.566Z,21.70
2017-07-20T01:48:38.916Z,21.70
2017-07-20T01:51:09.017Z,21.70
2017-07-20T01:53:38.374Z,21.60
2017-07-20T01:56:07.720Z,21.60
2017-07-20T01:58:37.086Z,21.60
2017-07-20T02:01:06.431Z,21.60
2017-07-20T02:03:35.766Z,21.70
2017-07-20T02:06:05.112Z,21.70
2017-07-20T02:08:34.452Z,21.80
2017-07-20T02:11:03.805Z,21.80
2017-07-20T02:13:33.129Z,21.80
2017-07-20T02:16:03.318Z,21.90
2017-07-20T02:18:32.656Z,21.90
2017-07-20T02:21:02.002Z,21.90
2017-07-20T02:23:31.346Z,22.00
2017-07-20T02:26:00.710Z,21.90
2017-07-20T02:28:30.043Z,21.90
2017-07-20T02:30:59.403Z,22.00
2017-07-20T02:33:28.764Z,22.00
2017-07-20T02:35:58.096Z,22.00
2017-07-20T02:38:28.217Z,22.00
2017-07-20T02:40:57.509Z,21.90
2017-07-20T02:43:27.656Z,22.00
2017-07-20T02:45:56.960Z,22.00
2017-07-20T02:48:26.289Z,22.00
2017-07-20T02:50:55.603Z,22.10
2017-07-20T02:53:24.920Z,22.10
2017-07-20T02:55:54.228Z,22.10
2017-07-20T02:58:24.309Z,22.10
2017-07-20T03:00:53.661Z,22.10
2017-07-20T03:03:24.331Z,22.00
2017-07-20T03:05:53.644Z,22.00
2017-07-20T03:08:22.964Z,22.00
2017-07-20T03:10:52.289Z,22.00
2017-07-20T03:13:21.591Z,21.90
2017-07-20T03:15:51.680Z,21.90
2017-07-20T03:18:20.990Z,21.90
2017-07-20T03:20:50.306Z,21.90
2017-07-20T03:23:20.379Z,22.00
2017-07-20T03:25:49.697Z,21.90
2017-07-20T03:28:19.004Z,22.00
2017-07-20T03:30:48.327Z,22.10
2017-07-20T03:33:17.635Z,22.00
2017-07-20T03:35:47.719Z,22.10
2017-07-20T03:38:17.048Z,22.10
2017-07-20T03:40:46.376Z,22.20
2017-07-20T03:43:15.698Z,22.20
2017-07-20T03:45:45.009Z,22.20
2017-07-20T03:48:14.332Z,22.20
2017-07-20T03:50:43.780Z,22.20
2017-07-20T03:53:13.128Z,22.30
2017-07-20T03:55:42.433Z,22.40
2017-07-20T03:58:11.766Z,22.30
2017-07-20T04:00:41.841Z,22.40
2017-07-20T04:03:11.152Z,22.40
2017-07-20T04:05:40.452Z,22.40
2017-07-20T04:08:09.780Z,22.40
2017-07-20T04:10:39.087Z,22.40
2017-07-20T04:13:08.421Z,22.40
2017-07-20T04:15:37.739Z,22.40
2017-07-20T04:18:07.038Z,22.30
2017-07-20T04:20:36.353Z,22.30
2017-07-20T04:23:05.656Z,22.40
2017-07-20T04:25:34.976Z,22.40
2017-07-20T04:28:04.276Z,22.30
2017-07-20T04:30:33.599Z,22.40
2017-07-20T04:33:03.663Z,22.50
2017-07-20T04:35:32.990Z,22.50
2017-07-20T04:38:02.289Z,22.50
2017-07-20T04:40:31.624Z,22.60
2017-07-20T04:43:00.934Z,22.70
2017-07-20T04:45:31.019Z,22.80
2017-07-20T04:48:00.344Z,22.70
2017-07-20T04:50:29.756Z,22.90
2017-07-20T04:52:59.894Z,22.90
2017-07-20T04:55:29.196Z,22.90
2017-07-20T04:57:58.512Z,22.90
2017-07-20T05:00:27.815Z,23.00
2017-07-20T05:02:57.196Z,23.10
2017-07-20T05:05:27.260Z,23.20
2017-07-20T05:07:56.585Z,23.20
2017-07-20T05:10:25.887Z,23.20
2017-07-20T05:12:55.208Z,23.30
2017-07-20T05:15:24.525Z,23.30
2017-07-20T05:17:53.852Z,23.30
2017-07-20T05:20:23.199Z,23.40
2017-07-20T05:22:52.504Z,23.40
2017-07-20T05:25:21.836Z,23.40
2017-07-20T05:27:51.136Z,23.50
2017-07-20T05:30:20.461Z,23.60
2017-07-20T05:32:49.763Z,23.60
2017-07-20T05:35:19.088Z,23.50
2017-07-20T05:37:48.606Z,23.50
2017-07-20T05:40:17.961Z,23.50
2017-07-20T05:42:47.292Z,23.50
2017-07-20T05:45:16.632Z,23.60
2017-07-20T05:47:45.966Z,23.60
2017-07-20T05:50:15.333Z,23.70
2017-07-20T05:52:44.662Z,23.70
2017-07-20T05:55:13.976Z,23.70
2017-07-20T05:57:43.305Z,23.80
2017-07-20T06:00:12.621Z,23.80
2017-07-20T06:02:41.948Z,23.90
2017-07-20T06:05:11.259Z,24.10
2017-07-20T06:07:40.588Z,24.20
2017-07-20T06:10:09.905Z,24.20
2017-07-20T06:12:39.229Z,24.20
2017-07-20T06:15:08.531Z,24.30
2017-07-20T06:17:37.849Z,24.30
2017-07-20T06:20:07.929Z,24.30
2017-07-20T06:22:37.256Z,24.30
2017-07-20T06:25:06.565Z,24.30
2017-07-20T06:27:36.675Z,24.30
2017-07-20T06:30:06.001Z,24.20
2017-07-20T06:32:36.112Z,24.30
2017-07-20T06:35:06.285Z,24.30
2017-07-20T06:37:35.666Z,24.20
2017-07-20T06:40:05.850Z,24.20
2017-07-20T06:42:36.002Z,24.20
2017-07-20T06:45:05.436Z,24.20
2017-07-20T06:47:34.779Z,24.20
2017-07-20T06:50:04.139Z,24.20
2017-07-20T06:52:33.529Z,24.20
2017-07-20T06:55:02.938Z,24.20
2017-07-20T06:57:32.313Z,24.20
2017-07-20T07:00:01.743Z,24.40
2017-07-20T07:02:31.290Z,24.50
2017-07-20T07:05:00.698Z,24.60
2017-07-20T07:07:30.872Z,24.70
2017-07-20T07:10:00.310Z,24.70
2017-07-20T07:12:29.742Z,24.70
2017-07-20T07:14:59.139Z,24.80
2017-07-20T07:17:29.301Z,24.90
2017-07-20T07:19:58.723Z,24.90
2017-07-20T07:22:28.101Z,24.90
2017-07-20T07:24:57.441Z,25.00
2017-07-20T07:27:27.548Z,25.00
2017-07-20T07:29:56.892Z,25.00
2017-07-20T07:32:28.615Z,25.10
2017-07-20T07:34:58.906Z,25.10
2017-07-20T07:37:28.312Z,25.20
2017-07-20T07:39:57.718Z,25.20
2017-07-20T07:42:27.450Z,25.30
2017-07-20T07:44:56.772Z,25.30
2017-07-20T07:47:26.088Z,25.30
2017-07-20T07:49:55.464Z,25.40
2017-07-20T07:52:24.802Z,25.50
2017-07-20T07:54:54.883Z,25.90
2017-07-20T07:57:24.183Z,25.90
2017-07-20T07:59:53.512Z,26.20
2017-07-20T08:02:22.841Z,26.40
2017-07-20T08:04:52.209Z,26.50
2017-07-20T08:07:21.515Z,26.60
2017-07-20T08:09:50.829Z,26.60
2017-07-20T08:12:20.179Z,26.70
2017-07-20T08:14:49.500Z,26.60
2017-07-20T08:17:18.840Z,26.60
2017-07-20T08:19:48.914Z,26.60
2017-07-20T08:22:18.241Z,26.70
2017-07-20T08:24:47.560Z,26.80
2017-07-20T08:27:17.655Z,27.00
2017-07-20T08:29:46.980Z,27.00
2017-07-20T08:32:16.333Z,27.00
2017-07-20T08:34:45.644Z,26.90
2017-07-20T08:37:14.955Z,27.00
2017-07-20T08:39:44.279Z,27.00
2017-07-20T08:42:13.583Z,27.10
2017-07-20T08:44:43.672Z,27.00
2017-07-20T08:47:13.009Z,27.00
2017-07-20T08:49:42.325Z,27.10
2017-07-20T08:52:12.400Z,26.90
2017-07-20T08:54:41.723Z,26.80
2017-07-20T08:57:11.799Z,26.70
2017-07-20T08:59:41.120Z,26.70
2017-07-20T09:02:10.429Z,26.60
2017-07-20T09:04:39.755Z,26.50
2017-07-20T09:07:09.840Z,26.10
2017-07-20T09:09:39.185Z,26.10
2017-07-20T09:12:09.283Z,25.60
2017-07-20T09:14:38.608Z,25.60
2017-07-20T09:17:07.931Z,25.40
2017-07-20T09:19:37.253Z,25.30
2017-07-20T09:22:06.573Z,25.10
2017-07-20T09:24:35.867Z,24.90
2017-07-20T09:27:05.195Z,24.80
2017-07-20T09:29:34.516Z,24.70
2017-07-20T09:32:04.681Z,24.50
2017-07-20T09:34:33.985Z,24.50
2017-07-20T09:37:03.321Z,24.40
2017-07-20T09:39:32.796Z,24.30
2017-07-20T09:42:02.153Z,24.30
2017-07-20T09:44:31.592Z,24.20
2017-07-20T09:47:00.905Z,24.20
2017-07-20T09:49:30.447Z,24.00
2017-07-20T09:51:59.739Z,23.90
2017-07-20T09:54:29.055Z,23.80
2017-07-20T09:56:59.135Z,23.80
2017-07-20T09:59:28.454Z,23.80
2017-07-20T10:01:57.767Z,23.80
2017-07-20T10:04:27.072Z,23.80
2017-07-20T10:06:56.360Z,23.70
2017-07-20T10:09:25.684Z,23.50
2017-07-20T10:11:55.761Z,23.50
2017-07-20T10:14:25.115Z,23.50
2017-07-20T10:16:54.428Z,23.40
2017-07-20T10:19:23.741Z,23.40
2017-07-20T10:21:53.183Z,23.40
2017-07-20T10:24:22.500Z,23.40
2017-07-20T10:26:51.928Z,23.30
2017-07-20T10:29:21.538Z,23.30
2017-07-20T10:31:50.976Z,23.30
2017-07-20T10:34:20.551Z,23.30
2017-07-20T10:36:49.904Z,23.40
2017-07-20T10:39:19.222Z,23.40
2017-07-20T10:41:48.618Z,23.40
2017-07-20T10:44:17.921Z,23.40
2017-07-20T10:46:47.227Z,23.40
2017-07-20T10:49:16.539Z,23.30
2017-07-20T10:51:46.645Z,23.20
2017-07-20T10:54:15.966Z,23.20
2017-07-20T10:56:46.041Z,23.00
2017-07-20T10:59:15.354Z,23.00
2017-07-20T11:01:44.655Z,23.00
2017-07-20T11:04:13.968Z,23.00
2017-07-20T11:06:43.378Z,23.00
2017-07-20T11:09:12.831Z,22.90
2017-07-20T11:11:42.839Z,22.90
2017-07-20T11:14:12.212Z,22.90
2017-07-20T11:16:41.503Z,22.90
2017-07-20T11:19:10.795Z,22.80
2017-07-20T11:21:40.115Z,22.70
2017-07-20T11:24:10.179Z,22.60
2017-07-20T11:26:39.491Z,22.60
2017-07-20T11:29:08.799Z,22.60
2017-07-20T11:31:38.129Z,22.60
2017-07-20T11:34:07.433Z,22.50
2017-07-20T11:36:36.755Z,22.50
2017-07-20T11:39:06.827Z,22.60
2017-07-20T11:41:36.147Z,22.60
2017-07-20T11:44:05.451Z,22.60
2017-07-20T11:46:35.495Z,22.70
2017-07-20T11:49:04.941Z,22.70
2017-07-20T11:51:34.275Z,22.80
2017-07-20T11:54:03.591Z,22.90
2017-07-20T11:56:33.705Z,23.20
2017-07-20T11:59:03.067Z,23.20
2017-07-20T12:01:32.374Z,23.30
2017-07-20T12:04:01.696Z,23.40
2017-07-20T12:06:31.225Z,23.50
2017-07-20T12:09:00.539Z,23.60
2017-07-20T12:11:29.834Z,23.70
2017-07-20T12:13:59.163Z,23.70
2017-07-20T12:16:28.480Z,23.80
2017-07-20T12:18:57.815Z,23.80
2017-07-20T12:21:27.120Z,23.70
2017-07-20T12:23:56.449Z,23.60
2017-07-20T12:26:25.763Z,23.60
2017-07-20T12:28:55.073Z,23.50
2017-07-20T12:31:24.379Z,23.50
2017-07-20T12:33:53.719Z,23.60
2017-07-20T12:36:23.032Z,23.60
2017-07-20T12:38:52.374Z,23.70
2017-07-20T12:41:21.689Z,23.70
2017-07-20T12:43:50.997Z,23.70
2017-07-20T12:46:20.377Z,23.70
2017-07-20T12:48:49.669Z,23.80
2017-07-20T12:51:19.039Z,23.80
2017-07-20T12:53:48.391Z,23.90
2017-07-20T12:56:17.716Z,23.90
2017-07-20T12:58:47.024Z,23.90
2017-07-20T13:01:17.111Z,24.00
2017-07-20T13:03:46.420Z,24.00
2017-07-20T13:06:15.760Z,24.00
2017-07-20T13:08:45.068Z,24.10
2017-07-20T13:11:14.386Z,24.10
2017-07-20T13:13:43.710Z,24.20
2017-07-20T13:16:13.053Z,24.30
2017-07-20T13:18:42.392Z,24.40
2017-07-20T13:21:11.722Z,24.40
2017-07-20T13:23:41.046Z,24.50
2017-07-20T13:26:10.400Z,24.50
2017-07-20T13:28:39.728Z,24.60
2017-07-20T13:31:09.035Z,24.60
2017-07-20T13:33:40.773Z,24.60
2017-07-20T13:36:10.117Z,24.60
2017-07-20T13:38:40.281Z,24.50
2017-07-20T13:41:10.388Z,24.50
2017-07-20T13:43:39.736Z,24.50
2017-07-20T13:46:09.097Z,24.50
2017-07-20T13:48:38.399Z,24.60
2017-07-20T13:51:08.431Z,24.50
2017-07-20T13:53:37.741Z,24.50
2017-07-20T13:56:07.067Z,24.50
2017-07-20T13:58:36.360Z,24.60
2017-07-20T14:01:05.684Z,24.70
2017-07-20T14:03:35.767Z,24.70
2017-07-20T14:06:05.097Z,24.60
2017-07-20T14:08:34.412Z,24.70
2017-07-20T14:11:03.725Z,24.60
2017-07-20T14:13:33.812Z,24.70
2017-07-20T14:16:03.142Z,24.70
2017-07-20T14:18:33.218Z,24.80
2017-07-20T14:21:02.561Z,24.80
2017-07-20T14:23:32.674Z,24.80
2017-07-20T14:26:02.065Z,24.70
2017-07-20T14:28:31.385Z,24.80
2017-07-20T14:31:01.491Z,24.90
2017-07-20T14:33:31.580Z,24.90
2017-07-20T14:36:00.924Z,24.90
2017-07-20T14:38:31.016Z,25.00
2017-07-20T14:41:00.328Z,25.00
2017-07-20T14:43:29.661Z,25.00
2017-07-20T14:45:58.972Z,25.00
2017-07-20T14:48:28.297Z,25.00
2017-07-20T14:50:57.629Z,25.00
2017-07-20T14:53:26.954Z,25.10
2017-07-20T14:55:57.028Z,25.10
2017-07-20T14:58:26.443Z,25.10
2017-07-20T15:00:55.760Z,25.20
2017-07-20T15:03:25.915Z,25.30
2017-07-20T15:05:55.335Z,25.30
2017-07-20T15:08:24.667Z,25.40
2017-07-20T15:10:54.095Z,25.50
2017-07-20T15:13:24.169Z,25.60
2017-07-20T15:15:53.496Z,25.50
2017-07-20T15:18:22.816Z,25.50
2017-07-20T15:20:52.907Z,25.30
2017-07-20T15:23:22.219Z,25.30
2017-07-20T15:25:51.552Z,25.30
2017-07-20T15:28:21.632Z,25.30
2017-07-20T15:30:50.984Z,25.30
2017-07-20T15:33:20.318Z,25.30
2017-07-20T15:35:49.635Z,25.30
2017-07-20T15:38:18.960Z,25.30
2017-07-20T15:40:48.270Z,25.30
2017-07-20T15:43:17.590Z,25.30
2017-07-20T15:45:46.904Z,25.30
2017-07-20T15:48:16.261Z,25.30
2017-07-20T15:50:45.576Z,25.30
2017-07-20T15:53:14.888Z,25.30
2017-07-20T15:55:44.260Z,25.30
2017-07-20T15:58:13.610Z,25.30
2017-07-20T16:00:42.932Z,25.30
2017-07-20T16:03:12.281Z,25.30
2017-07-20T16:05:41.593Z,25.30
2017-07-20T16:08:11.700Z,25.30
2017-07-20T16:10:41.805Z,25.30
2017-07-20T16:13:11.297Z,25.20
2017-07-20T16:15:40.660Z,25.20
2017-07-20T16:18:10.038Z,25.10
2017-07-20T16:20:39.378Z,25.10
2017-07-20T16:23:08.961Z,25.10
2017-07-20T16:25:39.047Z,25.00
2017-07-20T16:28:08.493Z,25.00
2017-07-20T16:30:37.821Z,24.80
2017-07-20T16:33:07.755Z,24.60
2017-07-20T16:35:37.158Z,24.50
2017-07-20T16:38:06.488Z,24.40
2017-07-20T16:40:36.587Z,24.20
2017-07-20T16:43:05.892Z,24.20
2017-07-20T16:45:35.252Z,24.10
2017-07-20T16:48:04.560Z,23.80
2017-07-20T16:50:33.870Z,23.60
2017-07-20T16:53:03.212Z,23.30
2017-07-20T16:55:32.540Z,23.10
2017-07-20T16:58:01.865Z,23.10
2017-07-20T17:00:31.177Z,23.20
2017-07-20T17:03:01.163Z,23.20
2017-07-20T17:05:30.493Z,23.30
2017-07-20T17:08:00.234Z,23.40
2017-07-20T17:10:30.101Z,23.30
2017-07-20T17:12:59.457Z,23.30
2017-07-20T17:15:29.112Z,23.30
2017-07-20T17:17:59.347Z,23.20
2017-07-20T17:20:28.799Z,23.20
2017-07-20T17:22:58.129Z,23.30
2017-07-20T17:25:28.234Z,23.30
2017-07-20T17:27:58.366Z,23.20
2017-07-20T17:30:28.464Z,23.20
2017-07-20T17:32:58.565Z,23.20
2017-07-20T17:35:27.910Z,23.20
2017-07-20T17:37:57.984Z,23.20
2017-07-20T17:40:27.451Z,23.20
2017-07-20T17:42:56.829Z,23.20
2017-07-20T17:45:26.216Z,23.20
2017-07-20T17:47:56.284Z,23.20
2017-07-20T17:50:25.633Z,23.20
2017-07-20T17:52:55.622Z,23.20
2017-07-20T17:55:24.928Z,23.20
2017-07-20T17:57:54.279Z,23.10
2017-07-20T18:00:23.659Z,23.20
2017-07-20T18:02:53.069Z,23.30
2017-07-20T18:05:22.460Z,23.30
2017-07-20T18:07:51.826Z,23.20
2017-07-20T18:10:21.247Z,23.20
2017-07-20T18:12:50.644Z,23.30
2017-07-20T18:15:20.107Z,23.30
2017-07-20T18:17:49.466Z,23.30
2017-07-20T18:20:19.067Z,23.40
2017-07-20T18:22:48.467Z,23.30
2017-07-20T18:25:19.173Z,23.30
2017-07-20T18:27:48.612Z,23.30
2017-07-20T18:30:18.081Z,23.20
2017-07-20T18:32:47.431Z,23.20
2017-07-20T18:35:17.556Z,23.10
2017-07-20T18:37:50.487Z,23.10
2017-07-20T18:40:19.955Z,23.00
2017-07-20T18:42:49.424Z,22.90
2017-07-20T18:45:18.843Z,22.80
2017-07-20T18:47:48.156Z,22.80
2017-07-20T18:50:18.258Z,22.70
2017-07-20T18:52:47.614Z,22.70
2017-07-20T18:55:17.249Z,22.60
2017-07-20T18:57:46.570Z,22.60
2017-07-20T19:00:15.948Z,22.50
2017-07-20T19:02:45.274Z,22.50
2017-07-20T19:05:15.021Z,22.50
2017-07-20T19:07:44.424Z,22.50
2017-07-20T19:10:13.788Z,22.60
2017-07-20T19:12:43.124Z,22.60
2017-07-20T19:15:12.435Z,22.50
2017-07-20T19:17:42.817Z,22.40
2017-07-20T19:20:12.199Z,22.40
2017-07-20T19:22:41.605Z,22.40
2017-07-20T19:25:12.738Z,22.40
2017-07-20T19:27:42.117Z,22.40
2017-07-20T19:30:11.450Z,22.30
2017-07-20T19:32:40.783Z,22.30
2017-07-20T19:35:10.124Z,22.00
2017-07-20T19:37:39.477Z,21.90
2017-07-20T19:40:08.805Z,21.90
2017-07-20T19:42:38.123Z,21.80
2017-07-20T19:45:08.388Z,21.70
2017-07-20T19:47:39.461Z,21.70
2017-07-20T19:50:09.557Z,21.70
2017-07-20T19:52:38.908Z,21.70
2017-07-20T19:55:08.242Z,21.50
2017-07-20T19:57:41.944Z,21.40
2017-07-20T20:00:11.272Z,21.40
2017-07-20T20:02:40.586Z,21.40
2017-07-20T20:05:09.988Z,21.40
2017-07-20T20:07:39.288Z,21.40
2017-07-20T20:10:09.424Z,21.50
2017-07-20T20:12:39.472Z,21.40
2017-07-20T20:15:10.140Z,21.50
2017-07-20T20:17:39.459Z,21.50
2017-07-20T20:20:13.325Z,21.50
2017-07-20T20:22:42.665Z,21.50
2017-07-20T20:25:11.997Z,21.50
2017-07-20T20:27:41.639Z,21.50
2017-07-20T20:30:11.023Z,21.40
2017-07-20T20:32:40.432Z,21.50
2017-07-20T20:35:10.096Z,21.50
2017-07-20T20:37:39.457Z,21.40
2017-07-20T20:40:09.626Z,21.40
2017-07-20T20:42:39.019Z,21.40
2017-07-20T20:45:08.355Z,21.40
2017-07-20T20:47:37.789Z,21.40
2017-07-20T20:50:07.113Z,21.40
2017-07-20T20:52:36.500Z,21.40
2017-07-20T20:55:05.864Z,21.40
2017-07-20T20:57:35.950Z,21.40
2017-07-20T21:00:05.533Z,21.40
2017-07-20T21:02:34.923Z,21.40
2017-07-20T21:05:04.261Z,21.40
2017-07-20T21:07:33.702Z,21.40
2017-07-20T21:10:03.137Z,21.40
2017-07-20T21:12:32.504Z,21.30
2017-07-20T21:15:01.859Z,21.20
2017-07-20T21:17:31.180Z,21.20
2017-07-20T21:20:00.541Z,21.20
2017-07-20T21:22:30.180Z,21.20
2017-07-20T21:24:59.594Z,21.20
2017-07-20T21:27:28.979Z,21.20
2017-07-20T21:29:58.339Z,21.20
2017-07-20T21:32:27.763Z,21.20
2017-07-20T21:34:57.098Z,21.20
2017-07-20T21:37:26.448Z,21.20
2017-07-20T21:39:55.758Z,21.20
2017-07-20T21:42:25.134Z,21.20
2017-07-20T21:44:54.465Z,21.10
2017-07-20T21:47:23.828Z,21.10
2017-07-20T21:49:53.209Z,21.10
2017-07-20T21:52:23.501Z,21.10
2017-07-20T21:54:52.863Z,21.10
2017-07-20T21:57:22.190Z,21.10
2017-07-20T21:59:51.511Z,21.00
2017-07-20T22:02:20.846Z,21.00
2017-07-20T22:04:50.941Z,20.80
2017-07-20T22:07:21.429Z,20.80
2017-07-20T22:09:51.463Z,20.80
2017-07-20T22:12:20.849Z,20.80
2017-07-20T22:14:50.216Z,20.80
2017-07-20T22:17:19.615Z,20.80
2017-07-20T22:19:49.006Z,20.90
2017-07-20T22:22:18.377Z,20.90
2017-07-20T22:24:47.717Z,20.80
2017-07-20T22:27:17.067Z,20.70
2017-07-20T22:29:47.195Z,20.70
2017-07-20T22:32:17.128Z,20.70
2017-07-20T22:34:46.453Z,20.70
2017-07-20T22:37:15.860Z,20.60
2017-07-20T22:39:45.437Z,20.50
2017-07-20T22:42:14.766Z,20.50
2017-07-20T22:44:44.212Z,20.50
2017-07-20T22:47:15.114Z,20.50
2017-07-20T22:49:44.550Z,20.40
2017-07-20T22:52:14.632Z,20.40
2017-07-20T22:54:43.977Z,20.40
2017-07-20T22:57:14.348Z,20.40
2017-07-20T22:59:43.690Z,20.40
2017-07-20T23:02:13.017Z,20.40
2017-07-20T23:04:42.371Z,20.40
2017-07-20T23:07:12.571Z,20.40
2017-07-20T23:10:17.255Z,20.40
2017-07-20T23:12:47.400Z,20.40
2017-07-20T23:15:16.721Z,20.30
2017-07-20T23:17:46.072Z,20.30
2017-07-20T23:20:16.189Z,20.20
2017-07-20T23:22:45.596Z,20.20
2017-07-20T23:25:16.117Z,20.00
2017-07-20T23:27:45.518Z,20.10
2017-07-20T23:30:15.032Z,20.10
2017-07-20T23:32:44.400Z,20.10
2017-07-20T23:35:13.777Z,20.00
2017-07-20T23:37:43.116Z,20.00
2017-07-20T23:40:12.481Z,20.00
2017-07-20T23:42:41.816Z,20.00
2017-07-20T23:45:11.153Z,20.00
2017-07-20T23:47:40.880Z,20.00
2017-07-20T23:50:10.991Z,20.00
2017-07-20T23:52:42.569Z,20.00
2017-07-20T23:55:11.934Z,20.00
2017-07-20T23:57:41.266Z,20.00
